Airport Name : Presidente Joao Suassuna

Other Name : Campina Grande

ICAO : SBKG

IATA : CPV

FAA :

Latitude : -7.269917

Longitude : -35.896364

Country : Brazil

Local Date and Time : 10/15/2018 5:53:00 PM

 

TAF (Terminal Aerodrome Forecast)

TAF SBKG 151600Z 1518/1606 08012KT 9999 SCT035 TX29/1518Z TN22/1605Z BECMG 1600/1602 BKN010 RMK PEU

 

METAR (METeorological Aerodrome Report)

SBKG 152000Z 06012KT CAVOK 28/19 Q1011

SBKG 151900Z 08016KT CAVOK 29/19 Q1011

SBKG 151800Z 08007KT CAVOK 31/17 Q1011

SBKG 151700Z 07006KT CAVOK 31/17 Q1012